sensor_id;sensor_type;location;lat;lon;timestamp;pressure;altitude;pressure_sealevel;temperature;humidity
74125;BME280;62475;52.192;5.396;2022-09-03T00:01:56;101262.06;;;17.91;48.91
74125;BME280;62475;52.192;5.396;2022-09-03T00:04:36;101169.25;;;17.29;49.42
74125;BME280;62475;52.192;5.396;2022-09-03T00:07:07;101265.66;;;17.83;49.58
74125;BME280;62475;52.192;5.396;2022-09-03T00:09:43;101238.78;;;17.66;48.78
74125;BME280;62475;52.192;5.396;2022-09-03T00:12:17;101255.75;;;17.73;49.75
74125;BME280;62475;52.192;5.396;2022-09-03T00:15:14;101254.91;;;17.73;49.95
74125;BME280;62475;52.192;5.396;2022-09-03T00:17:49;101257.38;;;17.66;49.55
74125;BME280;62475;52.192;5.396;2022-09-03T00:20:17;101268.00;;;17.72;49.83
74125;BME280;62475;52.192;5.396;2022-09-03T00:22:47;101252.16;;;17.64;49.28
74125;BME280;62475;52.192;5.396;2022-09-03T00:25:26;101234.53;;;17.52;49.53
74125;BME280;62475;52.192;5.396;2022-09-03T00:27:55;101261.66;;;17.63;50.05
74125;BME280;62475;52.192;5.396;2022-09-03T00:30:21;101253.63;;;17.62;49.70
74125;BME280;62475;52.192;5.396;2022-09-03T00:33:06;101250.56;;;17.55;49.90
74125;BME280;62475;52.192;5.396;2022-09-03T00:35:41;101242.72;;;17.48;50.25
74125;BME280;62475;52.192;5.396;2022-09-03T00:38:08;101237.31;;;17.43;50.51
74125;BME280;62475;52.192;5.396;2022-09-03T00:43:07;101239.59;;;17.41;50.32
74125;BME280;62475;52.192;5.396;2022-09-03T00:45:49;101244.53;;;17.36;51.09
74125;BME280;62475;52.192;5.396;2022-09-03T00:48:29;101238.50;;;17.25;50.77
74125;BME280;62475;52.192;5.396;2022-09-03T00:54:15;101250.25;;;17.31;50.88
74125;BME280;62475;52.192;5.396;2022-09-03T00:57:06;101246.50;;;17.27;50.54
74125;BME280;62475;52.192;5.396;2022-09-03T00:59:56;101257.13;;;17.25;51.29
74125;BME280;62475;52.192;5.396;2022-09-03T01:02:40;101239.94;;;17.31;50.74
74125;BME280;62475;52.192;5.396;2022-09-03T01:05:24;101227.56;;;17.12;51.42
74125;BME280;62475;52.192;5.396;2022-09-03T01:13:13;101250.41;;;17.26;51.01
74125;BME280;62475;52.192;5.396;2022-09-03T01:21:35;101254.19;;;17.21;51.00
74125;BME280;62475;52.192;5.396;2022-09-03T01:24:13;101250.41;;;17.17;51.47
74125;BME280;62475;52.192;5.396;2022-09-03T01:27:20;101255.16;;;17.17;51.36
74125;BME280;62475;52.192;5.396;2022-09-03T01:30:02;101256.47;;;17.11;51.63
74125;BME280;62475;52.192;5.396;2022-09-03T01:32:39;101257.59;;;17.01;51.87
74125;BME280;62475;52.192;5.396;2022-09-03T01:35:43;101256.81;;;17.00;51.50
74125;BME280;62475;52.192;5.396;2022-09-03T01:38:24;101262.03;;;17.02;51.68
74125;BME280;62475;52.192;5.396;2022-09-03T01:46:24;101264.31;;;16.91;52.26
74125;BME280;62475;52.192;5.396;2022-09-03T01:51:32;101258.09;;;16.94;51.96
74125;BME280;62475;52.192;5.396;2022-09-03T01:59:37;101256.00;;;16.83;51.80
74125;BME280;62475;52.192;5.396;2022-09-03T02:02:24;101257.59;;;16.84;52.12
74125;BME280;62475;52.192;5.396;2022-09-03T02:05:07;101261.38;;;16.88;51.95
74125;BME280;62475;52.192;5.396;2022-09-03T02:07:37;101266.59;;;16.89;52.12
74125;BME280;62475;52.192;5.396;2022-09-03T02:10:07;101261.03;;;16.89;52.43
74125;BME280;62475;52.192;5.396;2022-09-03T02:12:34;101258.28;;;16.89;52.25
74125;BME280;62475;52.192;5.396;2022-09-03T02:15:05;101251.25;;;16.83;52.22
74125;BME280;62475;52.192;5.396;2022-09-03T02:17:33;101258.59;;;16.88;51.96
74125;BME280;62475;52.192;5.396;2022-09-03T02:20:03;101256.00;;;16.83;52.50
74125;BME280;62475;52.192;5.396;2022-09-03T02:22:31;101253.53;;;16.81;52.40
74125;BME280;62475;52.192;5.396;2022-09-03T02:24:57;101234.75;;;16.70;52.20
74125;BME280;62475;52.192;5.396;2022-09-03T02:27:22;101239.66;;;16.73;52.44
74125;BME280;62475;52.192;5.396;2022-09-03T02:29:47;101256.78;;;16.75;52.71
74125;BME280;62475;52.192;5.396;2022-09-03T02:32:13;101248.94;;;16.68;52.06
74125;BME280;62475;52.192;5.396;2022-09-03T02:34:41;101259.56;;;16.75;52.48
74125;BME280;62475;52.192;5.396;2022-09-03T02:37:14;101250.59;;;16.69;52.88
74125;BME280;62475;52.192;5.396;2022-09-03T02:39:39;101256.66;;;16.71;53.08
74125;BME280;62475;52.192;5.396;2022-09-03T02:42:05;101236.06;;;16.64;52.70
74125;BME280;62475;52.192;5.396;2022-09-03T02:44:34;101240.47;;;16.65;52.84
74125;BME280;62475;52.192;5.396;2022-09-03T02:47:05;101243.06;;;16.61;52.56
74125;BME280;62475;52.192;5.396;2022-09-03T02:49:31;101249.59;;;16.65;52.92
74125;BME280;62475;52.192;5.396;2022-09-03T02:52:02;101225.75;;;16.47;53.30
74125;BME280;62475;52.192;5.396;2022-09-03T02:54:32;101247.94;;;16.56;53.09
74125;BME280;62475;52.192;5.396;2022-09-03T02:57:00;101248.44;;;16.49;52.97
74125;BME280;62475;52.192;5.396;2022-09-03T02:59:26;101247.13;;;16.47;53.35
74125;BME280;62475;52.192;5.396;2022-09-03T03:01:54;101246.97;;;16.52;53.37
74125;BME280;62475;52.192;5.396;2022-09-03T03:04:20;101229.47;;;16.34;53.62
74125;BME280;62475;52.192;5.396;2022-09-03T03:06:46;101244.16;;;16.43;53.34
74125;BME280;62475;52.192;5.396;2022-09-03T03:09:11;101247.56;;;16.40;54.51
74125;BME280;62475;52.192;5.396;2022-09-03T03:11:36;101249.88;;;16.38;53.37
74125;BME280;62475;52.192;5.396;2022-09-03T03:14:02;101249.88;;;16.38;54.05
74125;BME280;62475;52.192;5.396;2022-09-03T03:16:28;101249.97;;;16.33;53.85
74125;BME280;62475;52.192;5.396;2022-09-03T03:18:55;101246.41;;;16.33;54.60
74125;BME280;62475;52.192;5.396;2022-09-03T03:21:20;101248.19;;;16.29;54.33
74125;BME280;62475;52.192;5.396;2022-09-03T03:23:45;101234.31;;;16.29;53.84
74125;BME280;62475;52.192;5.396;2022-09-03T03:26:14;101226.00;;;16.20;53.88
74125;BME280;62475;52.192;5.396;2022-09-03T03:28:39;101231.53;;;16.20;54.40
74125;BME280;62475;52.192;5.396;2022-09-03T03:31:12;101222.88;;;16.13;54.83
74125;BME280;62475;52.192;5.396;2022-09-03T03:33:38;101234.97;;;16.17;54.35
74125;BME280;62475;52.192;5.396;2022-09-03T03:36:09;101237.56;;;16.14;54.30
74125;BME280;62475;52.192;5.396;2022-09-03T03:38:35;101233.13;;;16.13;54.90
74125;BME280;62475;52.192;5.396;2022-09-03T03:43:32;101230.50;;;16.08;55.20
74125;BME280;62475;52.192;5.396;2022-09-03T03:45:58;101233.28;;;16.08;54.95
74125;BME280;62475;52.192;5.396;2022-09-03T03:48:24;101235.56;;;16.06;54.41
74125;BME280;62475;52.192;5.396;2022-09-03T03:50:50;101229.84;;;16.02;55.72
74125;BME280;62475;52.192;5.396;2022-09-03T03:53:15;101230.31;;;15.96;54.84
74125;BME280;62475;52.192;5.396;2022-09-03T03:55:41;101234.09;;;16.00;54.52
74125;BME280;62475;52.192;5.396;2022-09-03T03:58:06;101221.16;;;15.95;54.78
74125;BME280;62475;52.192;5.396;2022-09-03T04:00:32;101217.25;;;15.87;54.97
74125;BME280;62475;52.192;5.396;2022-09-03T04:03:03;101230.31;;;15.96;54.95
74125;BME280;62475;52.192;5.396;2022-09-03T04:05:28;101241.56;;;15.99;55.01
74125;BME280;62475;52.192;5.396;2022-09-03T04:07:54;101227.38;;;15.92;54.69
74125;BME280;62475;52.192;5.396;2022-09-03T04:10:19;101231.78;;;15.93;54.55
74125;BME280;62475;52.192;5.396;2022-09-03T04:12:44;101222.47;;;15.89;54.86
74125;BME280;62475;52.192;5.396;2022-09-03T04:15:10;101238.28;;;15.97;54.63
74125;BME280;62475;52.192;5.396;2022-09-03T04:17:36;101239.28;;;15.93;55.45
74125;BME280;62475;52.192;5.396;2022-09-03T04:20:02;101238.59;;;15.87;55.54
74125;BME280;62475;52.192;5.396;2022-09-03T04:22:28;101239.41;;;15.87;55.19
74125;BME280;62475;52.192;5.396;2022-09-03T04:24:53;101233.50;;;15.80;55.97
74125;BME280;62475;52.192;5.396;2022-09-03T04:27:19;101227.63;;;15.73;56.25
74125;BME280;62475;52.192;5.396;2022-09-03T04:29:44;101216.66;;;15.60;56.29
74125;BME280;62475;52.192;5.396;2022-09-03T04:32:09;101235.41;;;15.71;55.29
74125;BME280;62475;52.192;5.396;2022-09-03T04:34:53;101241.78;;;15.72;56.09
74125;BME280;62475;52.192;5.396;2022-09-03T04:37:19;101219.72;;;15.58;56.14
74125;BME280;62475;52.192;5.396;2022-09-03T04:39:44;101233.44;;;15.63;56.64
74125;BME280;62475;52.192;5.396;2022-09-03T04:42:10;101203.81;;;15.42;56.85
74125;BME280;62475;52.192;5.396;2022-09-03T04:44:35;101235.84;;;15.56;56.91
74125;BME280;62475;52.192;5.396;2022-09-03T04:47:03;101223.06;;;15.47;56.53
74125;BME280;62475;52.192;5.396;2022-09-03T04:49:28;101232.38;;;15.51;56.51
74125;BME280;62475;52.192;5.396;2022-09-03T04:51:54;101214.13;;;15.28;56.93
74125;BME280;62475;52.192;5.396;2022-09-03T04:54:20;101218.41;;;15.34;57.47
74125;BME280;62475;52.192;5.396;2022-09-03T04:56:45;101232.22;;;15.47;56.26
74125;BME280;62475;52.192;5.396;2022-09-03T04:59:10;101241.34;;;15.48;57.43
74125;BME280;62475;52.192;5.396;2022-09-03T05:01:37;101238.84;;;15.46;57.40
74125;BME280;62475;52.192;5.396;2022-09-03T05:04:06;101241.94;;;15.45;56.45
74125;BME280;62475;52.192;5.396;2022-09-03T05:06:32;101228.25;;;15.40;58.24
74125;BME280;62475;52.192;5.396;2022-09-03T05:08:58;101241.75;;;15.41;57.24
74125;BME280;62475;52.192;5.396;2022-09-03T05:11:25;101245.34;;;15.42;56.69
74125;BME280;62475;52.192;5.396;2022-09-03T05:13:53;101239.31;;;15.40;57.29
74125;BME280;62475;52.192;5.396;2022-09-03T05:16:19;101242.69;;;15.37;57.39
74125;BME280;62475;52.192;5.396;2022-09-03T05:18:45;101242.97;;;15.27;58.46
74125;BME280;62475;52.192;5.396;2022-09-03T05:21:15;101232.94;;;15.17;57.80
74125;BME280;62475;52.192;5.396;2022-09-03T05:23:43;101237.75;;;15.25;57.87
74125;BME280;62475;52.192;5.396;2022-09-03T05:26:12;101229.91;;;15.27;57.13
74125;BME280;62475;52.192;5.396;2022-09-03T05:28:39;101238.91;;;15.33;57.99
74125;BME280;62475;52.192;5.396;2022-09-03T05:33:42;101235.03;;;15.34;57.77
74125;BME280;62475;52.192;5.396;2022-09-03T05:36:16;101233.88;;;15.35;58.39
74125;BME280;62475;52.192;5.396;2022-09-03T05:38:42;101230.09;;;15.31;58.23
74125;BME280;62475;52.192;5.396;2022-09-03T05:41:10;101137.31;;;14.80;57.57
74125;BME280;62475;52.192;5.396;2022-09-03T05:43:36;101233.56;;;15.36;58.02
74125;BME280;62475;52.192;5.396;2022-09-03T05:46:04;101240.84;;;15.46;57.53
74125;BME280;62475;52.192;5.396;2022-09-03T05:48:31;101234.97;;;15.47;58.35
74125;BME280;62475;52.192;5.396;2022-09-03T05:51:10;101223.38;;;15.45;57.21
74125;BME280;62475;52.192;5.396;2022-09-03T05:53:38;101223.25;;;15.50;56.90
74125;BME280;62475;52.192;5.396;2022-09-03T05:56:06;101229.03;;;15.62;57.71
74125;BME280;62475;52.192;5.396;2022-09-03T05:58:37;101210.75;;;15.53;56.28
74125;BME280;62475;52.192;5.396;2022-09-03T06:01:24;101224.34;;;15.71;57.21
74125;BME280;62475;52.192;5.396;2022-09-03T06:03:56;101216.34;;;15.70;57.17
74125;BME280;62475;52.192;5.396;2022-09-03T06:06:22;101226.31;;;15.79;57.90
74125;BME280;62475;52.192;5.396;2022-09-03T06:08:50;101240.09;;;15.93;57.15
74125;BME280;62475;52.192;5.396;2022-09-03T06:11:15;101233.81;;;16.18;56.27
74125;BME280;62475;52.192;5.396;2022-09-03T06:13:41;101212.63;;;16.22;54.44
74125;BME280;62475;52.192;5.396;2022-09-03T06:16:07;101238.69;;;16.69;54.53
74125;BME280;62475;52.192;5.396;2022-09-03T06:18:32;101236.41;;;16.62;54.06
74125;BME280;62475;52.192;5.396;2022-09-03T06:21:03;101230.03;;;16.70;53.34
74125;BME280;62475;52.192;5.396;2022-09-03T06:23:30;101243.06;;;16.78;53.40
74125;BME280;62475;52.192;5.396;2022-09-03T06:26:06;101229.06;;;16.83;53.20
74125;BME280;62475;52.192;5.396;2022-09-03T06:28:33;101231.50;;;16.93;53.63
74125;BME280;62475;52.192;5.396;2022-09-03T06:31:01;101227.41;;;16.82;53.48
74125;BME280;62475;52.192;5.396;2022-09-03T06:33:28;101201.28;;;16.75;53.10
74125;BME280;62475;52.192;5.396;2022-09-03T06:35:55;101237.84;;;17.20;53.06
74125;BME280;62475;52.192;5.396;2022-09-03T06:38:24;101230.66;;;17.36;51.84
74125;BME280;62475;52.192;5.396;2022-09-03T06:40:57;101196.47;;;17.52;51.58
74125;BME280;62475;52.192;5.396;2022-09-03T06:43:23;101233.84;;;17.72;51.65
74125;BME280;62475;52.192;5.396;2022-09-03T06:46:11;101236.28;;;17.73;51.09
74125;BME280;62475;52.192;5.396;2022-09-03T06:48:37;101236.34;;;18.02;50.97
74125;BME280;62475;52.192;5.396;2022-09-03T06:51:05;101238.19;;;18.28;50.43
74125;BME280;62475;52.192;5.396;2022-09-03T06:53:33;101230.78;;;18.02;51.07
74125;BME280;62475;52.192;5.396;2022-09-03T06:56:02;101251.50;;;18.13;50.32
74125;BME280;62475;52.192;5.396;2022-09-03T06:58:33;101233.97;;;17.84;51.34
74125;BME280;62475;52.192;5.396;2022-09-03T07:01:06;101250.19;;;18.11;51.05
74125;BME280;62475;52.192;5.396;2022-09-03T07:03:32;101241.84;;;18.11;50.53
74125;BME280;62475;52.192;5.396;2022-09-03T07:06:09;101242.81;;;18.15;50.35
74125;BME280;62475;52.192;5.396;2022-09-03T07:08:35;101238.59;;;18.09;50.54
74125;BME280;62475;52.192;5.396;2022-09-03T07:11:01;101246.03;;;18.26;51.03
74125;BME280;62475;52.192;5.396;2022-09-03T07:13:31;101255.16;;;18.35;50.74
74125;BME280;62475;52.192;5.396;2022-09-03T07:16:02;101239.88;;;18.49;49.84
74125;BME280;62475;52.192;5.396;2022-09-03T07:18:29;101247.06;;;18.50;49.37
74125;BME280;62475;52.192;5.396;2022-09-03T07:21:04;101188.03;;;18.16;50.20
74125;BME280;62475;52.192;5.396;2022-09-03T07:23:30;101245.50;;;18.61;50.43
74125;BME280;62475;52.192;5.396;2022-09-03T07:25:58;101221.09;;;18.38;49.57
74125;BME280;62475;52.192;5.396;2022-09-03T07:28:24;101235.47;;;18.48;50.26
74125;BME280;62475;52.192;5.396;2022-09-03T07:30:50;101239.00;;;18.57;50.02
74125;BME280;62475;52.192;5.396;2022-09-03T07:33:16;101242.78;;;18.53;49.83
74125;BME280;62475;52.192;5.396;2022-09-03T07:35:42;101239.16;;;18.61;50.47
74125;BME280;62475;52.192;5.396;2022-09-03T07:38:07;101231.72;;;18.85;49.84
74125;BME280;62475;52.192;5.396;2022-09-03T07:40:33;101237.84;;;18.99;49.44
74125;BME280;62475;52.192;5.396;2022-09-03T07:42:58;101233.16;;;18.91;48.97
74125;BME280;62475;52.192;5.396;2022-09-03T07:45:27;101247.16;;;19.03;48.74
74125;BME280;62475;52.192;5.396;2022-09-03T07:47:52;101247.44;;;18.90;49.24
74125;BME280;62475;52.192;5.396;2022-09-03T07:50:18;101240.41;;;19.04;48.47
74125;BME280;62475;52.192;5.396;2022-09-03T07:52:44;101244.75;;;19.35;47.93
74125;BME280;62475;52.192;5.396;2022-09-03T07:55:09;101243.88;;;19.55;47.42
74125;BME280;62475;52.192;5.396;2022-09-03T07:57:35;101253.25;;;19.83;47.67
74125;BME280;62475;52.192;5.396;2022-09-03T08:00:01;101231.88;;;19.75;47.19
74125;BME280;62475;52.192;5.396;2022-09-03T08:02:26;101223.97;;;19.65;46.90
74125;BME280;62475;52.192;5.396;2022-09-03T08:04:51;101235.13;;;19.77;46.93
74125;BME280;62475;52.192;5.396;2022-09-03T08:07:17;101223.72;;;19.70;47.51
74125;BME280;62475;52.192;5.396;2022-09-03T08:09:42;101232.13;;;19.82;46.73
74125;BME280;62475;52.192;5.396;2022-09-03T08:12:07;101245.38;;;20.09;46.59
74125;BME280;62475;52.192;5.396;2022-09-03T08:14:33;101222.94;;;20.05;46.51
74125;BME280;62475;52.192;5.396;2022-09-03T08:16:58;101251.28;;;19.95;46.99
74125;BME280;62475;52.192;5.396;2022-09-03T08:19:24;101240.06;;;20.16;47.11
74125;BME280;62475;52.192;5.396;2022-09-03T08:21:49;101243.06;;;20.59;46.14
74125;BME280;62475;52.192;5.396;2022-09-03T08:24:16;101244.00;;;20.15;45.74
74125;BME280;62475;52.192;5.396;2022-09-03T08:26:45;101230.31;;;20.34;44.98
74125;BME280;62475;52.192;5.396;2022-09-03T08:29:10;101219.16;;;20.22;45.18
74125;BME280;62475;52.192;5.396;2022-09-03T08:31:35;101211.91;;;20.09;46.33
74125;BME280;62475;52.192;5.396;2022-09-03T08:34:02;101230.28;;;20.58;44.39
74125;BME280;62475;52.192;5.396;2022-09-03T08:36:32;101214.38;;;20.35;45.51
74125;BME280;62475;52.192;5.396;2022-09-03T08:39:00;101246.41;;;20.65;45.39
74125;BME280;62475;52.192;5.396;2022-09-03T08:41:52;101256.63;;;20.85;44.12
74125;BME280;62475;52.192;5.396;2022-09-03T08:44:39;101248.78;;;20.90;44.17
74125;BME280;62475;52.192;5.396;2022-09-03T08:49:43;101260.19;;;20.97;43.78
74125;BME280;62475;52.192;5.396;2022-09-03T08:52:29;101256.69;;;21.12;43.73
74125;BME280;62475;52.192;5.396;2022-09-03T08:55:09;101253.91;;;21.12;43.76
74125;BME280;62475;52.192;5.396;2022-09-03T08:57:42;101250.66;;;21.10;44.41
74125;BME280;62475;52.192;5.396;2022-09-03T09:00:10;101239.25;;;21.31;43.93
74125;BME280;62475;52.192;5.396;2022-09-03T09:03:14;101255.16;;;21.42;43.88
74125;BME280;62475;52.192;5.396;2022-09-03T09:05:50;101247.72;;;21.62;42.48
74125;BME280;62475;52.192;5.396;2022-09-03T09:08:37;101259.19;;;21.73;43.02
74125;BME280;62475;52.192;5.396;2022-09-03T09:16:22;101243.47;;;21.96;41.81
74125;BME280;62475;52.192;5.396;2022-09-03T09:22:01;101247.25;;;22.53;42.15
74125;BME280;62475;52.192;5.396;2022-09-03T09:24:36;101244.78;;;22.33;41.33
74125;BME280;62475;52.192;5.396;2022-09-03T09:27:04;101242.25;;;22.28;41.13
74125;BME280;62475;52.192;5.396;2022-09-03T09:29:32;101242.47;;;22.70;40.83
74125;BME280;62475;52.192;5.396;2022-09-03T09:31:59;101240.78;;;22.65;40.25
74125;BME280;62475;52.192;5.396;2022-09-03T09:34:25;101248.16;;;22.73;40.13
74125;BME280;62475;52.192;5.396;2022-09-03T09:36:52;101240.66;;;22.77;40.19
74125;BME280;62475;52.192;5.396;2022-09-03T09:39:18;101236.00;;;22.66;39.67
74125;BME280;62475;52.192;5.396;2022-09-03T09:42:07;101247.25;;;22.85;39.65
74125;BME280;62475;52.192;5.396;2022-09-03T09:44:35;101246.81;;;23.02;38.95
74125;BME280;62475;52.192;5.396;2022-09-03T09:47:05;101238.41;;;23.21;38.76
74125;BME280;62475;52.192;5.396;2022-09-03T09:49:36;101245.63;;;23.41;38.20
74125;BME280;62475;52.192;5.396;2022-09-03T09:54:30;101244.56;;;23.68;38.50
74125;BME280;62475;52.192;5.396;2022-09-03T09:57:01;101241.16;;;23.78;38.22
74125;BME280;62475;52.192;5.396;2022-09-03T09:59:28;101236.22;;;23.94;37.15
74125;BME280;62475;52.192;5.396;2022-09-03T10:02:06;101236.97;;;24.14;37.77
74125;BME280;62475;52.192;5.396;2022-09-03T10:04:33;101229.78;;;23.94;37.55
74125;BME280;62475;52.192;5.396;2022-09-03T10:07:20;101228.47;;;23.88;38.26
74125;BME280;62475;52.192;5.396;2022-09-03T10:09:58;101223.88;;;23.76;38.11
74125;BME280;62475;52.192;5.396;2022-09-03T10:12:29;101232.34;;;24.25;37.91
74125;BME280;62475;52.192;5.396;2022-09-03T10:15:10;101226.75;;;24.25;36.75
74125;BME280;62475;52.192;5.396;2022-09-03T10:18:01;101223.28;;;24.35;36.67
74125;BME280;62475;52.192;5.396;2022-09-03T10:23:24;101202.41;;;24.32;36.83
74125;BME280;62475;52.192;5.396;2022-09-03T10:25:55;101217.00;;;24.45;36.77
74125;BME280;62475;52.192;5.396;2022-09-03T10:28:26;101201.47;;;24.77;36.07
74125;BME280;62475;52.192;5.396;2022-09-03T10:31:22;101220.13;;;24.92;35.99
74125;BME280;62475;52.192;5.396;2022-09-03T10:42:01;101208.69;;;25.41;35.16
74125;BME280;62475;52.192;5.396;2022-09-03T10:44:41;101214.16;;;25.63;35.56
74125;BME280;62475;52.192;5.396;2022-09-03T10:55:43;101204.91;;;25.30;34.53
74125;BME280;62475;52.192;5.396;2022-09-03T10:58:36;101207.09;;;25.40;33.73
74125;BME280;62475;52.192;5.396;2022-09-03T11:07:02;101201.34;;;25.33;34.47
74125;BME280;62475;52.192;5.396;2022-09-03T11:09:35;101213.38;;;25.66;34.44
74125;BME280;62475;52.192;5.396;2022-09-03T11:12:15;101207.44;;;25.75;33.14
74125;BME280;62475;52.192;5.396;2022-09-03T11:14:52;101199.56;;;25.95;33.36
74125;BME280;62475;52.192;5.396;2022-09-03T11:17:26;101187.69;;;26.15;32.59
74125;BME280;62475;52.192;5.396;2022-09-03T11:22:29;101192.06;;;26.60;32.81
74125;BME280;62475;52.192;5.396;2022-09-03T11:24:57;101198.22;;;26.18;32.91
74125;BME280;62475;52.192;5.396;2022-09-03T11:27:43;101190.38;;;26.52;33.52
74125;BME280;62475;52.192;5.396;2022-09-03T11:30:22;101176.69;;;26.00;33.11
74125;BME280;62475;52.192;5.396;2022-09-03T11:32:52;101172.13;;;25.81;33.37
74125;BME280;62475;52.192;5.396;2022-09-03T11:35:38;101177.09;;;26.02;33.73
74125;BME280;62475;52.192;5.396;2022-09-03T11:46:01;101180.09;;;26.77;32.09
74125;BME280;62475;52.192;5.396;2022-09-03T11:48:40;101173.19;;;26.67;32.56
74125;BME280;62475;52.192;5.396;2022-09-03T11:56:45;101160.91;;;26.39;32.75
74125;BME280;62475;52.192;5.396;2022-09-03T11:59:24;101175.91;;;26.57;32.25
74125;BME280;62475;52.192;5.396;2022-09-03T12:02:00;101177.66;;;26.72;32.48
74125;BME280;62475;52.192;5.396;2022-09-03T12:04:45;101153.25;;;26.39;33.17
74125;BME280;62475;52.192;5.396;2022-09-03T12:07:34;101154.50;;;26.42;33.19
74125;BME280;62475;52.192;5.396;2022-09-03T12:10:23;101157.09;;;26.71;31.98
74125;BME280;62475;52.192;5.396;2022-09-03T12:15:58;101176.25;;;27.27;31.15
74125;BME280;62475;52.192;5.396;2022-09-03T12:18:33;101179.00;;;27.06;31.62
74125;BME280;62475;52.192;5.396;2022-09-03T12:21:05;101165.97;;;26.70;31.67
74125;BME280;62475;52.192;5.396;2022-09-03T12:23:43;101167.34;;;27.18;31.72
74125;BME280;62475;52.192;5.396;2022-09-03T12:26:12;101161.44;;;27.69;30.89
74125;BME280;62475;52.192;5.396;2022-09-03T12:28:41;101171.78;;;27.16;30.25
74125;BME280;62475;52.192;5.396;2022-09-03T12:31:15;101167.44;;;27.39;31.03
74125;BME280;62475;52.192;5.396;2022-09-03T12:33:57;101168.22;;;27.29;31.18
74125;BME280;62475;52.192;5.396;2022-09-03T12:36:25;101168.59;;;27.28;31.15
74125;BME280;62475;52.192;5.396;2022-09-03T12:38:51;101170.53;;;27.06;30.43
74125;BME280;62475;52.192;5.396;2022-09-03T12:41:22;101166.66;;;27.53;30.43
74125;BME280;62475;52.192;5.396;2022-09-03T12:43:58;101178.09;;;26.84;30.64
74125;BME280;62475;52.192;5.396;2022-09-03T12:46:27;101178.84;;;26.71;30.60
74125;BME280;62475;52.192;5.396;2022-09-03T12:48:55;101151.53;;;26.89;31.34
74125;BME280;62475;52.192;5.396;2022-09-03T12:51:21;101166.84;;;26.95;30.79
74125;BME280;62475;52.192;5.396;2022-09-03T12:53:47;101161.72;;;27.22;30.71
74125;BME280;62475;52.192;5.396;2022-09-03T12:56:14;101169.91;;;27.65;30.02
74125;BME280;62475;52.192;5.396;2022-09-03T12:58:58;101153.78;;;27.76;29.74
74125;BME280;62475;52.192;5.396;2022-09-03T13:01:35;101168.31;;;28.00;29.75
74125;BME280;62475;52.192;5.396;2022-09-03T13:04:08;101168.28;;;27.54;29.50
74125;BME280;62475;52.192;5.396;2022-09-03T13:06:52;101162.22;;;27.90;29.53
74125;BME280;62475;52.192;5.396;2022-09-03T13:09:23;101169.94;;;27.97;29.09
74125;BME280;62475;52.192;5.396;2022-09-03T13:11:50;101173.19;;;28.03;29.20
74125;BME280;62475;52.192;5.396;2022-09-03T13:14:17;101172.31;;;27.81;28.55
74125;BME280;62475;52.192;5.396;2022-09-03T13:27:16;101161.03;;;27.70;30.08
74125;BME280;62475;52.192;5.396;2022-09-03T13:30:12;101165.06;;;27.55;29.71
74125;BME280;62475;52.192;5.396;2022-09-03T13:35:29;101155.41;;;27.99;29.01
74125;BME280;62475;52.192;5.396;2022-09-03T13:40:48;101160.22;;;28.51;27.59
74125;BME280;62475;52.192;5.396;2022-09-03T13:46:11;101154.59;;;27.94;30.63
74125;BME280;62475;52.192;5.396;2022-09-03T13:48:42;101150.91;;;28.40;28.28
74125;BME280;62475;52.192;5.396;2022-09-03T13:54:06;101153.72;;;28.57;30.03
74125;BME280;62475;52.192;5.396;2022-09-03T13:59:41;101148.06;;;28.54;29.37
74125;BME280;62475;52.192;5.396;2022-09-03T14:10:23;101153.75;;;28.29;29.30
74125;BME280;62475;52.192;5.396;2022-09-03T14:13:05;101156.09;;;28.69;29.03
74125;BME280;62475;52.192;5.396;2022-09-03T14:16:13;101155.66;;;28.78;28.75
74125;BME280;62475;52.192;5.396;2022-09-03T14:18:51;101152.50;;;28.58;28.78
74125;BME280;62475;52.192;5.396;2022-09-03T14:21:22;101151.59;;;28.86;29.43
74125;BME280;62475;52.192;5.396;2022-09-03T14:23:57;101151.97;;;28.91;29.34
74125;BME280;62475;52.192;5.396;2022-09-03T14:26:27;101152.53;;;29.45;28.22
74125;BME280;62475;52.192;5.396;2022-09-03T14:29:17;101148.06;;;28.40;28.41
74125;BME280;62475;52.192;5.396;2022-09-03T14:37:27;101150.53;;;27.60;31.20
74125;BME280;62475;52.192;5.396;2022-09-03T14:40:21;101154.91;;;27.33;30.94
74125;BME280;62475;52.192;5.396;2022-09-03T14:43:14;101161.41;;;27.55;31.34
74125;BME280;62475;52.192;5.396;2022-09-03T14:51:30;101147.19;;;27.20;32.04
74125;BME280;62475;52.192;5.396;2022-09-03T14:54:10;101155.28;;;27.28;31.36
74125;BME280;62475;52.192;5.396;2022-09-03T15:00:03;101154.47;;;27.21;31.42
74125;BME280;62475;52.192;5.396;2022-09-03T15:10:53;101160.88;;;27.11;33.22
74125;BME280;62475;52.192;5.396;2022-09-03T15:13:08;101149.19;;;27.09;32.13
74125;BME280;62475;52.192;5.396;2022-09-03T15:20:49;101168.53;;;27.07;32.09
74125;BME280;62475;52.192;5.396;2022-09-03T15:37:10;101160.84;;;27.00;30.63
74125;BME280;62475;52.192;5.396;2022-09-03T15:39:40;101149.53;;;26.86;31.83
74125;BME280;62475;52.192;5.396;2022-09-03T15:42:22;101165.22;;;26.83;31.53
74125;BME280;62475;52.192;5.396;2022-09-03T15:44:53;101152.69;;;26.81;30.92
74125;BME280;62475;52.192;5.396;2022-09-03T15:53:20;101164.31;;;26.69;31.36
74125;BME280;62475;52.192;5.396;2022-09-03T15:58:38;101161.56;;;26.79;31.79
74125;BME280;62475;52.192;5.396;2022-09-03T16:01:13;101156.28;;;26.71;31.96
74125;BME280;62475;52.192;5.396;2022-09-03T16:06:23;101164.78;;;26.81;32.04
74125;BME280;62475;52.192;5.396;2022-09-03T16:09:16;101161.56;;;26.83;31.30
74125;BME280;62475;52.192;5.396;2022-09-03T16:11:49;101153.34;;;26.53;31.36
74125;BME280;62475;52.192;5.396;2022-09-03T16:14:30;101160.59;;;26.51;31.26